AirNav   Everest Fuels
 
 1383 users online  

43K Marion Municipal Airport
Marion, Kansas, USA

GOING TO MARION?


FAA INFORMATION EFFECTIVE 16 JULY 2020

Location

FAA Identifier: 43K
Lat/Long: 38-20-15.4000N 096-59-17.7000W
38-20.256667N 096-59.295000W
38.3376111,-96.9882500
(estimated)
Elevation: 1390 ft. / 424 m (estimated)
Variation: 07E (1985)
From city: 2 miles SE of MARION, KS
Time zone: UTC -5 (UTC -6 during Standard Time)
Zip code: 66861

Airport Operations

Airport use: Open to the public
Activation date: 12/1945
Control tower: no
ARTCC: KANSAS CITY CENTER
FSS: WICHITA FLIGHT SERVICE STATION
NOTAMs facility: ICT (NOTAM-D service available)
Attendance: UNATNDD
PHONE AVBL 24 HRS.
Wind indicator: yes
Segmented circle: no
Beacon: white-green (lighted land airport)
Operates sunset to sunrise.

Airport Communications

CTAF: 122.9

Nearby radio navigation aids

VOR radial/distance  VOR name  Freq  Var
FRIr183/(38.4)FORT RILEY VOR109.4006E

 
NDB name  Hdg/Dist  Freq  Var  ID
NEWTON033/21.228106EEWK . .-- -.-
HERINGTON195/22.940706EHRU .... .-. ..-

Airport Services

Fuel available: 100LL MOGAS
Parking: hangars and tiedowns
Airframe service: NONE
Powerplant service: NONE
Bottled oxygen: NONE
Bulk oxygen: NONE

Runway Information

Runway 17/35

Dimensions: 2573 x 40 ft. / 784 x 12 m
Surface: asphalt, in good condition
Runway edge lights: low intensity
Runway edge markings: RWY 35 ALIGNMENT NUMBERS FADED.
RUNWAY 17  RUNWAY 35
Latitude: 38-20.455545N38-20.031528N
Longitude: 096-59.227317W096-59.227317W
Elevation: 1382.0 ft.1378.0 ft.
Traffic pattern: leftleft
Runway heading: 173 magnetic, 180 true353 magnetic, 000 true
Markings: numbers only, in good conditionnumbers only, in good condition

Runway 3/21

Dimensions: 2745 x 95 ft. / 837 x 29 m
Surface: turf, in good condition
RY 03/21 IS SLIGHTLY ROUGH.
Runway edge markings: 03/21 THLDS & EDGES MKD WITH YELLOW PAINTED TIRES.
RUNWAY 3  RUNWAY 21
Traffic pattern: leftleft
Obstructions: 4 ft. fence
THE PROXIMITY OF THE FENCE TO THE RWY ESTABLISHES THE CONTROLLING OBSTRUCTION. THE 35' TO 40' TREES DIRECTLY BEHIND WOULD BE MORE OF A CONCERN FOR APPROACHING AIRCRAFT.
22 ft. pline, 735 ft. from runway, 170 ft. left of centerline, 33:1 slope to clear

Runway 13/31

Dimensions: 2722 x 50 ft. / 830 x 15 m
Surface: turf, in good condition
Runway edge markings: 13/31 THLD & EDGES MKD WITH YELLOW PAINTED TIRES.
RUNWAY 13  RUNWAY 31
Traffic pattern: leftleft
Obstructions: 4 ft. fence, 15 ft. from runwaynone

Runway 18/36

Dimensions: 2310 x 67 ft. / 704 x 20 m
Surface: turf, in good condition
Runway edge markings: RY 18/36 THLD DELINEATED WITH YELLOW PAINTED TIRES.
RUNWAY 18  RUNWAY 36
Latitude: 38-20.459450N38-20.079648N
Longitude: 096-59.352258W096-59.385003W
Elevation: 1380.0 ft.1378.0 ft.
Traffic pattern: leftleft
Runway heading: 177 magnetic, 184 true357 magnetic, 004 true
Obstructions: 4 ft. fence, 9 ft. from runway, 30 ft. left and right of centerline, 2:1 slope to clearnone

Airport Ownership and Management from official FAA records

Ownership: Publicly-owned
Owner: CITY OF MARION
208 EAST SANTA FE
MARION, KS 66861
Phone 620-382-3703
Manager: ROGER HOLTER
208 EAST SANTA FE
MARION, KS 66861
Phone 620-382-3703
MR.MAYFIELD IS CITY MGR. OF MARION KS.

Airport Operational Statistics

Aircraft based on the field: 17
Single engine airplanes: 16
Ultralights: 1
    
Aircraft operations: avg 25/day *
66% local general aviation
33% transient general aviation
<1% military
* for 12-month period ending 28 August 2019

Additional Remarks

A58-35 RWY 35 ROAD ABANDONED & IS GATED FM TRAFFIC. +4 FT FENCE; 70 FT FRM END OF RWY; BOTH SIDES OF RWY.
A58-17 +4' FENCE 5' FROM RWY END 30' L & R OF CNTRLEN; LOWERED AT RWY.
FOR CD CTC KANSAS CITY ARTCC AT 913-254-8508.

Instrument Procedures

There are no published instrument procedures at 43K.

Some nearby airports with instrument procedures:

KEWK - Newton City/County Airport (22 nm SW)
KHRU - Herington Regional Airport (23 nm N)
47K - Moundridge Municipal Airport (25 nm W)
KMPR - Mc Pherson Airport (33 nm W)
1K1 - Lloyd Stearman Field Airport (34 nm S)
 
Loc | Ops | Rwys | IFR | FBO | Links
Com | Nav | Svcs | Stats | Notes
Area around 43K (Marion Municipal Airport)
 
Road maps at: MapQuest Bing Google
 
Aerial photo
WARNING: Photo may not be current or correct
Aerial photo of 43K (Marion Municipal Airport)
Photo by Paul Hodson
Photo taken 21-Jan-2006
taken from a C182 from the northwest

Do you have a better or more recent aerial photo of Marion Municipal Airport that you would like to share? If so, please send us your photo.

 
Sectional chart

 
Airport distance calculator
Flying to Marion Municipal Airport? Find the distance to fly.

From to 43K

Sunrise and sunset
Times for 16-Jul-2020
 Local
(UTC-5)
 Zulu
(UTC)
Morning civil twilight05:4810:48
Sunrise06:1911:19
Sunset20:4901:49
Evening civil twilight21:2002:20

Current date and time
Zulu (UTC)  16-Jul-2020 18:02:33
Local (UTC-5)  16-Jul-2020 13:02:33
 
METAR
KEWK 
22nm SW 
161756Z AUTO 25009KT 10SM FEW002 26/21 A3006 RMK AO2 SLP164 T02560206 10261 20206 53004
K1K1 
34nm S 
161755Z AUTO 29009G14KT 10SM CLR 24/21 A3005 RMK AO2 T02440206 10244 20205
KEQA 
35nm S 
161755Z AUTO 26007KT 10SM SCT120 25/21 A3004 RMK AO2
KAAO 
37nm S 
161754Z AUTO 29008KT 10SM CLR 26/21 A3004 RMK AO2 SLP160 60007 T02560211 10256 20211 53006
KEMP 
37nm E 
161753Z AUTO 08009KT 10SM CLR 27/21 A3001 RMK AO2 SLP153 T02670211 10267 20206 56026
KBEC 
40nm S 
161755Z AUTO 29006KT 10SM CLR 25/21 A3005 RMK AO2 60009 T02470208 10247 20206
K3AU 
40nm S 
161755Z AUTO 30003KT 10SM CLR 25/22 A3004 RMK AO2
KSLN 
41nm NW 
161753Z 16010KT 10SM CLR 28/21 A3003 RMK AO2 SLP157 T02780211 10278 20217 55005
KFRI 
43nm N 
161756Z 11010KT 10SM BKN180 29/21 A3001 RMK AO2A SLP151 T02910208 10291 20218 57022
K13K 
44nm SE 
161755Z AUTO 22006KT 10SM CLR 24/22 A3003 RMK AO2 T02360216 10236 20203 60002
TAF
KSLN 
41nm NW 
161740Z 1618/1718 12010KT P6SM BKN100 FM161900 14010KT P6SM FEW050 SCT250 FM170700 15008KT P6SM SCT040
KFRI 
43nm N 
161300Z 1613/1719 VRB06KT 9999 OVC220 QNH3004INS BECMG 1617/1618 17009KT 8000 -SHRA BKN030 QNH2994INS BECMG 1619/1620 VRB06KT 9999 NSW FEW030 QNH2994INS BECMG 1714/1715 19010G15KT 9999 FEW150 QNH2990INS TX30/1620Z TN20/1712Z
KHUT 
44nm W 
161740Z 1618/1718 27008KT P6SM FEW020 BKN100 FM162200 17010KT P6SM FEW040 SCT250 FM170200 14010KT P6SM SCT040
KIAB 
45nm S 
161243Z 1612/1716 VRB06KT 9999 FEW200 QNH3002INS TEMPO 1612/1614 VRB20G30KT 8000 -TSRA OVC030CB BECMG 1614/1615 12009KT 9999 SCT050 BKN100 QNH2996INS BECMG 1620/1621 14009KT 9999 OVC030 QNH2997INS BECMG 1704/1705 VRB06KT 9999 SCT040 QNH2996INS TX33/1620Z TN23/1612Z
KICT 
46nm SW 
161740Z 1618/1718 22010KT P6SM FEW020 BKN120 FM162000 16010KT P6SM SCT040
KMHK 
50nm N 
161726Z 1618/1718 14005KT P6SM SCT150
NOTAMs
Click for the latest NOTAMs
NOTAMs are issued by the DoD/FAA and will open in a separate window not controlled by AirNav.

 

 
 

Would you like to see your business listed on this page?

 If your business provides an interesting product or service to pilots, flight crews, aircraft, or users of the Marion Municipal Airport, you should consider listing it here.  To start the listing process, click on the button below
 
Add a business
 

Other Pages about Marion Municipal Airport

Update a link
 
Copyright © AirNav, LLC. All rights reserved. Privacy Policy  Contact